Strona główna
METAR-TAF:

METAR-TAF

Lotnisko :

Morrisville-Stowe State Airport

Morrisville, Vermont, Stany Zjednoczone

Szerokość geograficzna: 44-32-10N, Długość geograficzna: 072-36-58W, wysokość: 223 m

Aktualna obserwacja pogody

Raport powstał 17 minut temu, godzina 10:54 UTC
Cisza
Temperatura 13°C
Wilgotność 100%
Ciśnienie 1018 hPa
Widzialność: 0.4 km
mgła

METAR: KMVL 191054Z AUTO 00000KT 1/4SM FG VV002 13/13 A3007 RMK AO2 SLP183 T01280128

czas: 07:11 (11:11 UTC)


TAF: brakujący

Obserwacja i prognoza pogody dla ponad 4000 lotnisk (raport METAR i TAF).

Dostępne stacje oznaczono żółtymi i czerwonymi punktami na mapie.

Najedź kursorem aby zobaczyć nazwę stacji.

Kliknij aby zobaczyć obserwacje i prognozy pogody.

Aby zmienić mapę: kliknij na zielony przycisk z czarnym krzyżykiem, aby powiększyć; na zielony przycisk z myślnikiem, aby pomniejszyć; na zielone strzałki, aby przejść do map sąsiednich.


METAR-TAF: